Time;durP1;ratioP1;P1;durP2;ratioP2;P2;SDS_P1;SDS_P2;PMS_P1;PMS_P2;Temp;Humidity;BMP_temperature;BMP_pressure;BME280_temperature;BME280_humidity;BME280_pressure;Samples;Min_cycle;Max_cycle;Signal;HPM_P1;HPM_P2
2021/08/02 00:00:24;;;;;;;4.53;1.30;;;15.60;99.90;;;;;;5021251;28;20622;-91
2021/08/02 00:02:50;;;;;;;1.40;0.90;;;15.60;99.90;;;;;;5002853;28;20768;-90
2021/08/02 00:05:24;;;;;;;1.93;0.90;;;15.60;99.90;;;;;;5003518;28;20221;-90
2021/08/02 00:08:01;;;;;;;0.60;0.60;;;15.60;99.90;;;;;;5010153;28;20249;-92
2021/08/02 00:10:32;;;;;;;1.27;0.30;;;15.60;99.90;;;;;;5003016;28;20281;-92
2021/08/02 00:13:13;;;;;;;5.73;0.87;;;15.60;99.90;;;;;;5006375;28;20225;-92
2021/08/02 00:15:39;;;;;;;5.57;0.97;;;15.60;99.90;;;;;;5025003;28;20250;-92
2021/08/02 00:18:06;;;;;;;0.70;0.50;;;15.70;99.90;;;;;;4989074;28;20229;-91
2021/08/02 00:20:34;;;;;;;1.80;0.60;;;15.60;99.90;;;;;;5006973;28;20217;-91
2021/08/02 00:23:07;;;;;;;3.17;0.80;;;15.60;99.90;;;;;;5025012;28;20305;-92
2021/08/02 00:25:34;;;;;;;0.60;0.60;;;15.60;99.90;;;;;;5005159;28;20919;-89
2021/08/02 00:28:02;;;;;;;0.63;0.57;;;15.60;99.90;;;;;;5005891;28;20226;-91
2021/08/02 00:30:28;;;;;;;1.00;0.80;;;15.50;99.90;;;;;;5013963;28;20277;-91
2021/08/02 00:32:54;;;;;;;0.37;0.37;;;15.40;99.90;;;;;;5005793;28;20638;-88
2021/08/02 00:35:21;;;;;;;0.40;0.40;;;15.30;99.90;;;;;;4990177;28;20316;-89
2021/08/02 00:38:00;;;;;;;0.97;0.60;;;15.30;99.90;;;;;;5013591;28;20707;-89
2021/08/02 00:40:48;;;;;;;1.10;0.80;;;15.30;99.90;;;;;;5024559;28;20194;-91
2021/08/02 00:43:35;;;;;;;2.60;1.13;;;15.30;99.90;;;;;;5006603;28;20191;-91
2021/08/02 00:46:01;;;;;;;2.27;0.77;;;15.20;99.90;;;;;;5005318;28;20524;-91
2021/08/02 00:48:31;;;;;;;4.63;0.67;;;15.00;99.90;;;;;;5023497;28;20221;-87
2021/08/02 00:51:02;;;;;;;1.30;1.07;;;14.80;99.90;;;;;;5022626;28;20333;-89
2021/08/02 00:53:28;;;;;;;0.60;0.60;;;14.60;99.90;;;;;;5003699;28;20711;-90
2021/08/02 00:56:01;;;;;;;1.07;0.77;;;14.40;99.90;;;;;;5021117;28;20591;-88
2021/08/02 00:58:29;;;;;;;0.80;0.70;;;14.30;99.90;;;;;;4998084;28;20218;-89
2021/08/02 01:00:56;;;;;;;0.93;0.87;;;14.30;99.90;;;;;;5023727;28;20195;-90
2021/08/02 01:03:23;;;;;;;2.73;0.63;;;14.30;99.90;;;;;;5022776;28;20229;-90
2021/08/02 01:05:52;;;;;;;0.67;0.67;;;14.30;99.90;;;;;;5005315;28;20218;-89
2021/08/02 01:08:37;;;;;;;3.57;0.70;;;14.30;99.90;;;;;;5004146;28;20222;-91
2021/08/02 01:11:07;;;;;;;3.30;0.80;;;14.40;99.90;;;;;;5023393;28;20241;-90
2021/08/02 01:13:35;;;;;;;1.00;0.60;;;14.40;99.90;;;;;;5023490;28;20546;-91
2021/08/02 01:16:04;;;;;;;0.97;0.50;;;14.50;99.90;;;;;;5005333;28;20206;-93
2021/08/02 01:18:31;;;;;;;0.30;0.27;;;14.30;99.90;;;;;;5023758;28;20233;-89
2021/08/02 01:21:03;;;;;;;0.73;0.40;;;14.20;99.90;;;;;;5005969;28;20290;-88
2021/08/02 01:23:30;;;;;;;0.50;0.40;;;14.00;99.90;;;;;;5002824;28;20258;-89
2021/08/02 01:25:56;;;;;;;0.33;0.33;;;13.90;99.90;;;;;;5006126;28;20211;-88
2021/08/02 01:28:24;;;;;;;1.43;0.70;;;13.80;99.90;;;;;;5021460;28;20187;-90
2021/08/02 01:31:01;;;;;;;2.90;0.40;;;13.80;99.90;;;;;;5021392;28;20187;-90
2021/08/02 01:33:29;;;;;;;0.73;0.60;;;13.90;99.90;;;;;;5020995;28;20336;-90
2021/08/02 01:35:57;;;;;;;0.30;0.30;;;14.10;99.90;;;;;;5021612;28;20241;-88
2021/08/02 01:38:25;;;;;;;1.13;0.60;;;14.20;99.90;;;;;;5022529;28;20467;-89
2021/08/02 01:40:51;;;;;;;0.53;0.53;;;14.20;99.90;;;;;;4989643;28;20207;-90
2021/08/02 01:43:16;;;;;;;1.00;0.60;;;14.20;99.90;;;;;;5004130;28;20206;-89
2021/08/02 01:46:02;;;;;;;2.63;0.90;;;14.30;99.90;;;;;;4988662;28;20198;-90
2021/08/02 01:48:34;;;;;;;0.57;0.40;;;14.30;99.90;;;;;;5003523;28;20922;-89
2021/08/02 01:51:29;;;;;;;0.33;0.33;;;14.40;99.90;;;;;;5004729;28;20219;-89
2021/08/02 01:54:17;;;;;;;0.47;0.40;;;14.40;99.90;;;;;;4965149;28;20305;-89
2021/08/02 01:57:06;;;;;;;5.07;1.10;;;14.40;99.90;;;;;;5004006;28;20238;-90
2021/08/02 01:59:38;;;;;;;1.17;0.93;;;14.50;99.90;;;;;;5004664;28;20215;-91
2021/08/02 02:02:09;;;;;;;3.50;1.23;;;14.50;99.90;;;;;;5022850;28;20300;-90
2021/08/02 02:04:46;;;;;;;0.57;0.50;;;14.60;99.90;;;;;;5004998;28;20187;-88
2021/08/02 02:07:13;;;;;;;0.70;0.70;;;14.70;99.90;;;;;;5004395;28;20195;-90
2021/08/02 02:09:40;;;;;;;3.50;1.00;;;14.70;99.90;;;;;;4987310;28;20233;-90
2021/08/02 02:12:07;;;;;;;2.10;1.63;;;14.80;99.90;;;;;;5002677;28;20256;-89
2021/08/02 02:14:36;;;;;;;0.70;0.70;;;14.80;99.90;;;;;;5019430;28;20231;-88
2021/08/02 02:17:03;;;;;;;1.80;0.43;;;14.80;99.90;;;;;;5002367;28;20282;-89
2021/08/02 02:19:31;;;;;;;2.93;0.67;;;14.90;99.90;;;;;;5018990;28;20199;-90
2021/08/02 02:21:58;;;;;;;0.50;0.50;;;14.90;99.90;;;;;;5019074;28;20280;-89
2021/08/02 02:24:25;;;;;;;18.27;1.17;;;14.90;99.90;;;;;;5002714;28;20684;-90
2021/08/02 02:26:53;;;;;;;2.63;0.80;;;14.80;99.90;;;;;;5019294;28;20254;-89
2021/08/02 02:29:21;;;;;;;2.73;0.63;;;14.80;99.90;;;;;;5020058;28;20213;-90
2021/08/02 02:31:49;;;;;;;3.70;0.47;;;14.70;99.90;;;;;;5002067;28;20234;-91
2021/08/02 02:34:16;;;;;;;5.30;0.60;;;14.70;99.90;;;;;;5002112;28;20195;-90
2021/08/02 02:36:43;;;;;;;0.80;0.40;;;14.70;99.90;;;;;;5020298;28;20211;-89
2021/08/02 02:39:10;;;;;;;3.77;0.60;;;14.70;99.90;;;;;;5001827;28;20230;-90
2021/08/02 02:41:36;;;;;;;1.27;0.50;;;14.70;99.90;;;;;;5020015;28;20226;-90
2021/08/02 02:44:04;;;;;;;0.83;0.60;;;14.60;99.90;;;;;;4985046;28;20219;-88
2021/08/02 02:46:31;;;;;;;0.87;0.80;;;14.60;99.90;;;;;;5018811;28;20286;-89
2021/08/02 02:48:58;;;;;;;2.50;0.70;;;14.60;99.90;;;;;;4985367;28;20226;-89
2021/08/02 02:51:26;;;;;;;4.83;0.70;;;14.60;99.90;;;;;;5002729;28;20340;-90
2021/08/02 02:53:54;;;;;;;0.37;0.33;;;14.60;99.90;;;;;;5001778;28;20234;-91
2021/08/02 02:56:20;;;;;;;5.10;0.80;;;14.70;99.90;;;;;;4999713;28;20321;-91
2021/08/02 02:58:47;;;;;;;1.93;0.90;;;14.70;99.90;;;;;;4983280;28;20251;-89
2021/08/02 03:01:15;;;;;;;1.13;0.80;;;14.70;99.90;;;;;;4999992;28;20202;-89
2021/08/02 03:03:45;;;;;;;2.30;1.00;;;14.70;99.90;;;;;;5008740;28;20278;-90
2021/08/02 03:06:12;;;;;;;3.23;1.10;;;14.70;99.90;;;;;;5000534;28;20579;-91
2021/08/02 03:08:40;;;;;;;2.43;0.80;;;14.60;99.90;;;;;;5001917;28;20237;-89
2021/08/02 03:11:06;;;;;;;3.30;0.80;;;14.50;99.90;;;;;;4998992;28;20235;-89
2021/08/02 03:13:32;;;;;;;1.33;0.50;;;14.50;99.90;;;;;;5000595;28;20222;-91
2021/08/02 03:15:58;;;;;;;5.33;0.60;;;14.50;99.90;;;;;;5000884;28;20223;-89
2021/08/02 03:18:24;;;;;;;1.07;1.00;;;14.50;99.90;;;;;;4983799;28;20210;-90
2021/08/02 03:20:50;;;;;;;2.63;1.33;;;14.60;99.90;;;;;;4999791;28;20246;-91
2021/08/02 03:24:01;;;;;;;3.30;0.60;;;14.60;99.90;;;;;;5000689;28;20680;-89
2021/08/02 03:26:48;;;;;;;2.03;1.57;;;14.60;99.90;;;;;;4995334;28;20219;-91
2021/08/02 03:29:34;;;;;;;7.33;2.47;;;14.60;99.90;;;;;;5000426;28;20222;-90
2021/08/02 03:32:09;;;;;;;5.30;0.90;;;14.50;99.90;;;;;;5000259;28;20219;-90
2021/08/02 03:34:35;;;;;;;1.50;0.77;;;14.50;99.90;;;;;;5001659;28;20226;-89
2021/08/02 03:37:05;;;;;;;1.70;0.43;;;14.40;99.90;;;;;;5001989;28;20654;-89
2021/08/02 03:39:33;;;;;;;0.53;0.53;;;14.40;99.90;;;;;;5001607;28;20269;-89
2021/08/02 03:41:59;;;;;;;0.37;0.30;;;14.30;99.90;;;;;;4999852;28;20242;-90
2021/08/02 03:44:27;;;;;;;1.03;0.40;;;14.30;99.90;;;;;;4983461;28;20269;-89
2021/08/02 03:46:54;;;;;;;1.00;0.60;;;14.30;99.90;;;;;;4999839;28;20250;-90
2021/08/02 03:49:21;;;;;;;0.60;0.57;;;14.30;99.90;;;;;;4999754;28;20190;-90
2021/08/02 03:51:48;;;;;;;4.93;1.00;;;14.20;99.90;;;;;;4984094;28;20222;-92
2021/08/02 03:54:15;;;;;;;0.77;0.60;;;14.10;99.90;;;;;;4999240;28;20239;-91
2021/08/02 03:56:43;;;;;;;5.87;1.00;;;14.10;99.90;;;;;;4998961;28;20271;-91
2021/08/02 03:59:09;;;;;;;0.70;0.70;;;14.20;99.90;;;;;;5000551;28;20603;-91
2021/08/02 04:01:38;;;;;;;1.33;1.23;;;14.20;99.90;;;;;;5000649;28;20227;-92
2021/08/02 04:04:05;;;;;;;0.80;0.80;;;14.10;99.90;;;;;;5000977;28;20206;-91
2021/08/02 04:06:31;;;;;;;3.90;0.90;;;14.10;99.90;;;;;;5000394;28;20222;-91
2021/08/02 04:08:57;;;;;;;0.63;0.53;;;14.10;99.90;;;;;;4967592;28;20223;-90
2021/08/02 04:11:22;;;;;;;0.70;0.70;;;14.00;99.90;;;;;;4977250;28;20223;-92
2021/08/02 04:13:48;;;;;;;0.83;0.30;;;14.00;99.90;;;;;;5000434;28;20234;-91
2021/08/02 04:16:14;;;;;;;2.53;0.70;;;14.10;99.90;;;;;;4982828;28;20219;-91
2021/08/02 04:18:39;;;;;;;8.30;0.97;;;14.20;99.90;;;;;;4973285;28;20226;-91
2021/08/02 04:21:05;;;;;;;4.13;0.97;;;14.20;99.90;;;;;;4998869;28;20227;-90
2021/08/02 04:23:31;;;;;;;5.53;1.00;;;14.20;99.90;;;;;;4982385;28;21080;-90
2021/08/02 04:25:57;;;;;;;1.73;0.83;;;14.30;99.90;;;;;;4981386;28;20223;-91
2021/08/02 04:28:22;;;;;;;0.60;0.60;;;14.30;99.90;;;;;;4998888;28;20586;-90
2021/08/02 04:30:48;;;;;;;10.57;1.33;;;14.30;99.90;;;;;;4998544;28;20191;-90
2021/08/02 04:33:14;;;;;;;0.60;0.60;;;14.40;99.90;;;;;;4983452;28;21384;-91
2021/08/02 04:35:40;;;;;;;2.63;0.83;;;14.40;99.90;;;;;;4998814;28;20219;-91
2021/08/02 04:38:07;;;;;;;0.87;0.50;;;14.40;99.90;;;;;;4983709;28;20239;-93
2021/08/02 04:40:32;;;;;;;6.27;0.70;;;14.40;99.90;;;;;;4999250;28;21045;-92
2021/08/02 04:42:58;;;;;;;2.93;0.57;;;14.40;99.90;;;;;;5000126;28;20215;-91
2021/08/02 04:45:24;;;;;;;1.60;0.77;;;14.40;99.90;;;;;;4999845;28;20215;-89
2021/08/02 04:47:51;;;;;;;3.40;1.43;;;14.40;99.90;;;;;;4995281;28;20415;-90
2021/08/02 04:50:17;;;;;;;0.30;0.30;;;14.50;99.90;;;;;;4979722;28;20247;-90
2021/08/02 04:52:44;;;;;;;1.37;0.27;;;14.60;99.90;;;;;;4996850;28;20239;-88
2021/08/02 04:55:10;;;;;;;3.30;0.67;;;14.70;99.90;;;;;;4998056;28;20602;-89
2021/08/02 04:57:36;;;;;;;0.67;0.43;;;14.80;99.90;;;;;;5000604;28;20231;-92
2021/08/02 05:00:03;;;;;;;2.10;0.70;;;14.90;99.90;;;;;;5002939;28;20231;-89
2021/08/02 05:02:29;;;;;;;5.10;0.60;;;15.00;99.90;;;;;;4985649;28;20243;-92
2021/08/02 05:04:55;;;;;;;0.77;0.63;;;15.00;99.90;;;;;;4980090;28;20281;-89
2021/08/02 05:07:21;;;;;;;1.23;0.73;;;15.00;99.90;;;;;;5003132;28;20844;-89
2021/08/02 05:09:47;;;;;;;2.80;1.50;;;15.10;99.90;;;;;;5001714;28;20242;-93
2021/08/02 05:12:13;;;;;;;0.93;0.93;;;15.10;99.90;;;;;;5002459;28;20496;-90
2021/08/02 05:14:38;;;;;;;1.27;1.10;;;15.30;99.90;;;;;;5001789;28;20318;-90
2021/08/02 05:17:04;;;;;;;2.43;0.43;;;15.30;99.90;;;;;;4983606;28;20219;-90
2021/08/02 05:19:30;;;;;;;0.50;0.50;;;15.40;99.90;;;;;;4983500;28;20271;-89
2021/08/02 05:21:55;;;;;;;3.37;0.77;;;15.40;99.90;;;;;;4999722;28;20192;-90
2021/08/02 05:24:21;;;;;;;0.50;0.50;;;15.50;99.90;;;;;;5001640;28;20673;-88
2021/08/02 05:26:47;;;;;;;3.33;0.70;;;15.50;99.90;;;;;;5000131;28;20242;-90
2021/08/02 05:29:13;;;;;;;0.33;0.33;;;15.50;99.90;;;;;;4997479;28;20572;-91
2021/08/02 05:31:38;;;;;;;0.63;0.40;;;15.60;99.90;;;;;;5000842;28;20219;-90
2021/08/02 05:34:04;;;;;;;2.83;0.50;;;15.80;99.90;;;;;;4986436;28;20703;-91
2021/08/02 05:36:30;;;;;;;0.30;0.30;;;15.80;99.90;;;;;;5000787;28;20484;-90
2021/08/02 05:38:55;;;;;;;0.40;0.40;;;15.80;99.90;;;;;;5002427;28;20219;-91
2021/08/02 05:41:21;;;;;;;2.90;0.97;;;16.00;99.90;;;;;;4984570;28;20646;-92
2021/08/02 05:43:47;;;;;;;1.10;0.90;;;16.30;99.90;;;;;;5001084;28;20218;-93
2021/08/02 05:46:13;;;;;;;0.87;0.87;;;16.30;99.90;;;;;;4986003;28;20245;-94
2021/08/02 05:48:39;;;;;;;0.30;0.30;;;16.00;99.90;;;;;;5001467;28;20214;-89
2021/08/02 05:51:04;;;;;;;2.97;0.50;;;15.70;99.90;;;;;;5000179;28;20601;-91
2021/08/02 05:53:30;;;;;;;1.07;0.80;;;15.50;99.90;;;;;;5000662;28;20231;-89
2021/08/02 05:55:56;;;;;;;0.50;0.50;;;15.40;99.90;;;;;;5002471;28;20212;-91
2021/08/02 05:58:21;;;;;;;4.93;1.30;;;15.40;99.90;;;;;;5001122;28;20239;-93
2021/08/02 06:00:47;;;;;;;0.30;0.30;;;15.40;99.90;;;;;;4984236;28;20183;-91
2021/08/02 06:03:13;;;;;;;0.60;0.50;;;15.30;99.90;;;;;;4984286;28;20337;-92
2021/08/02 06:05:38;;;;;;;0.93;0.83;;;15.30;99.90;;;;;;4999902;28;20246;-90
2021/08/02 06:08:04;;;;;;;0.83;0.40;;;15.40;99.90;;;;;;5000382;28;20609;-88
2021/08/02 06:10:30;;;;;;;2.40;0.63;;;15.40;99.90;;;;;;4999824;28;20201;-92
2021/08/02 06:12:56;;;;;;;0.90;0.50;;;15.40;99.90;;;;;;4999851;28;20211;-89
2021/08/02 06:15:22;;;;;;;0.80;0.43;;;15.50;99.90;;;;;;4998058;28;20231;-93
2021/08/02 06:17:47;;;;;;;0.30;0.30;;;15.60;99.90;;;;;;4979857;28;20211;-93
2021/08/02 06:20:13;;;;;;;0.27;0.27;;;15.70;99.90;;;;;;4981622;28;20580;-89
2021/08/02 06:22:39;;;;;;;0.40;0.40;;;15.70;99.90;;;;;;4998531;28;20223;-90
2021/08/02 06:25:06;;;;;;;4.53;0.70;;;15.80;99.90;;;;;;4997398;28;20321;-92
2021/08/02 06:27:32;;;;;;;0.47;0.37;;;15.90;99.90;;;;;;4999980;28;20222;-90
2021/08/02 06:29:59;;;;;;;1.80;0.70;;;15.90;99.90;;;;;;4995639;28;20219;-92
2021/08/02 06:32:25;;;;;;;0.53;0.30;;;16.00;99.90;;;;;;4997185;28;20226;-90
2021/08/02 06:34:51;;;;;;;2.10;0.40;;;16.00;99.90;;;;;;4981815;28;20382;-91
2021/08/02 06:37:17;;;;;;;1.57;1.13;;;16.00;99.90;;;;;;4996368;28;21094;-92
2021/08/02 06:39:43;;;;;;;0.80;0.80;;;16.10;99.90;;;;;;4984245;28;20211;-88
2021/08/02 06:42:09;;;;;;;3.00;0.60;;;16.20;99.90;;;;;;5000508;28;20235;-90
2021/08/02 06:44:35;;;;;;;0.70;0.37;;;16.30;99.90;;;;;;4999311;28;20595;-91
2021/08/02 06:47:01;;;;;;;0.50;0.50;;;16.40;99.90;;;;;;4983872;28;20230;-91
2021/08/02 06:49:26;;;;;;;1.03;0.60;;;16.60;99.90;;;;;;4999215;28;20199;-91
2021/08/02 06:51:52;;;;;;;3.50;0.50;;;16.70;99.90;;;;;;4982709;28;20203;-92
2021/08/02 06:54:18;;;;;;;0.50;0.47;;;16.80;99.90;;;;;;4981729;28;20274;-92
2021/08/02 06:56:44;;;;;;;0.50;0.50;;;16.90;99.90;;;;;;4998536;28;20234;-92
2021/08/02 06:59:09;;;;;;;1.00;0.70;;;17.10;99.90;;;;;;4980903;28;20258;-92
2021/08/02 07:01:36;;;;;;;1.10;0.50;;;17.20;99.90;;;;;;4997383;28;20703;-90
2021/08/02 07:04:02;;;;;;;3.10;0.80;;;17.50;99.90;;;;;;4998422;28;20254;-92
2021/08/02 07:06:28;;;;;;;3.57;0.70;;;17.80;99.90;;;;;;4997206;28;20219;-95
2021/08/02 07:08:56;;;;;;;2.00;0.70;;;18.30;99.90;;;;;;4997559;28;20218;-87
2021/08/02 07:11:23;;;;;;;4.80;1.23;;;18.80;99.90;;;;;;4997272;28;20219;-91
2021/08/02 07:13:48;;;;;;;1.37;1.13;;;19.10;99.90;;;;;;4998046;28;20239;-94
2021/08/02 07:16:14;;;;;;;6.20;0.70;;;20.10;99.90;;;;;;4998051;28;20623;-90
2021/08/02 07:18:40;;;;;;;1.00;0.67;;;21.00;99.90;;;;;;4977892;28;20696;-91
2021/08/02 07:21:05;;;;;;;1.33;0.50;;;20.30;99.90;;;;;;4982052;28;20286;-89
2021/08/02 07:23:31;;;;;;;0.53;0.53;;;19.90;99.90;;;;;;4984668;28;20227;-89
2021/08/02 07:25:57;;;;;;;0.53;0.53;;;19.60;99.90;;;;;;5000078;28;22336;-90
2021/08/02 07:28:23;;;;;;;1.13;0.67;;;19.70;99.90;;;;;;4983101;28;20183;-89
2021/08/02 07:30:49;;;;;;;2.63;0.80;;;20.00;99.90;;;;;;4999973;28;20191;-88
2021/08/02 07:33:14;;;;;;;0.40;0.40;;;19.30;99.90;;;;;;4981319;28;20231;-89
2021/08/02 07:35:40;;;;;;;1.27;1.13;;;17.70;99.90;;;;;;4998509;28;20219;-88
2021/08/02 07:38:06;;;;;;;5.33;1.30;;;17.20;99.90;;;;;;4998870;28;20318;-91
2021/08/02 07:40:31;;;;;;;0.60;0.60;;;17.00;99.90;;;;;;4999070;28;20210;-92
2021/08/02 07:42:57;;;;;;;0.60;0.60;;;16.80;99.90;;;;;;4994586;28;20191;-91
2021/08/02 07:45:23;;;;;;;0.57;0.50;;;16.70;99.90;;;;;;4998630;28;20684;-92
2021/08/02 07:47:49;;;;;;;4.30;0.60;;;16.80;99.90;;;;;;4982490;28;20292;-94
2021/08/02 07:50:16;;;;;;;2.07;0.90;;;16.80;99.90;;;;;;4982069;28;20545;-90
2021/08/02 07:52:45;;;;;;;3.97;1.13;;;17.00;99.90;;;;;;4997970;28;20544;-91
2021/08/02 07:55:14;;;;;;;2.03;1.07;;;17.10;99.90;;;;;;4983979;28;21237;-94
2021/08/02 07:57:40;;;;;;;0.60;0.60;;;17.20;99.90;;;;;;5014679;28;21163;-90
2021/08/02 08:00:08;;;;;;;1.73;1.03;;;17.50;99.90;;;;;;4982448;28;20234;-94
2021/08/02 08:02:34;;;;;;;0.90;0.70;;;17.50;99.90;;;;;;4999833;28;20998;-93
2021/08/02 08:04:59;;;;;;;0.67;0.67;;;17.60;99.90;;;;;;4998158;28;20232;-95
2021/08/02 08:07:25;;;;;;;2.00;0.60;;;17.80;99.90;;;;;;4996782;28;20511;-94
2021/08/02 08:09:51;;;;;;;1.63;0.70;;;18.00;99.90;;;;;;4984076;28;20278;-94
2021/08/02 08:12:17;;;;;;;0.53;0.53;;;18.10;99.90;;;;;;4999437;28;20219;-93
2021/08/02 08:14:42;;;;;;;1.70;0.60;;;18.70;99.90;;;;;;4983611;28;20239;-92
2021/08/02 08:17:08;;;;;;;5.40;0.60;;;18.70;99.90;;;;;;4997968;28;20738;-96
2021/08/02 08:19:34;;;;;;;0.70;0.70;;;18.70;99.90;;;;;;5000151;28;20219;-92
2021/08/02 08:22:00;;;;;;;1.17;1.00;;;18.90;99.90;;;;;;4998719;28;20192;-91
2021/08/02 08:24:26;;;;;;;1.03;0.53;;;19.90;99.90;;;;;;4997194;28;20793;-95
2021/08/02 08:26:51;;;;;;;0.60;0.60;;;20.10;99.90;;;;;;4998014;28;20234;-92
2021/08/02 08:29:17;;;;;;;1.00;0.70;;;20.80;99.90;;;;;;4982276;28;20685;-91
2021/08/02 08:31:43;;;;;;;1.60;0.80;;;21.00;99.90;;;;;;4981068;28;20306;-88
2021/08/02 08:34:09;;;;;;;0.50;0.50;;;21.60;99.90;;;;;;5001343;28;20223;-92
2021/08/02 08:36:34;;;;;;;2.53;0.57;;;21.60;99.90;;;;;;5003254;28;20226;-92
2021/08/02 08:39:01;;;;;;;2.03;0.73;;;22.40;99.90;;;;;;5000915;28;20226;-88
2021/08/02 08:41:27;;;;;;;6.50;1.00;;;22.80;99.90;;;;;;4984844;28;20273;-95
2021/08/02 08:43:54;;;;;;;1.02;0.73;;;23.80;99.90;;;;;;5000183;28;20226;-93
2021/08/02 08:46:21;;;;;;;2.45;0.75;;;23.10;99.90;;;;;;4985000;28;20210;-90
2021/08/02 08:48:48;;;;;;;0.50;0.50;;;20.40;99.90;;;;;;5001740;28;20504;-91
2021/08/02 08:51:14;;;;;;;0.55;0.50;;;19.30;99.90;;;;;;5003507;28;21129;-91
2021/08/02 08:53:44;;;;;;;3.03;0.70;;;19.30;99.90;;;;;;5001610;28;20558;-90
2021/08/02 08:56:11;;;;;;;2.37;0.43;;;19.30;99.90;;;;;;5006345;28;20600;-93
2021/08/02 08:58:37;;;;;;;3.53;1.00;;;19.00;99.90;;;;;;5011336;28;20578;-92
2021/08/02 09:01:05;;;;;;;0.67;0.57;;;19.30;99.90;;;;;;5007231;28;20191;-91
2021/08/02 09:03:31;;;;;;;0.40;0.40;;;20.00;99.90;;;;;;5001896;28;20277;-96
2021/08/02 09:06:06;;;;;;;0.57;0.50;;;19.40;99.90;;;;;;5006111;28;20249;-94
2021/08/02 09:08:43;;;;;;;2.03;0.60;;;18.90;99.90;;;;;;5004946;28;20224;-95
2021/08/02 09:11:19;;;;;;;0.90;0.40;;;19.50;99.90;;;;;;5005592;28;20445;-93
2021/08/02 09:13:45;;;;;;;1.03;0.50;;;19.90;99.90;;;;;;5022496;28;20715;-95
2021/08/02 09:16:17;;;;;;;1.27;0.47;;;19.60;99.90;;;;;;5005156;28;20213;-92
2021/08/02 09:18:57;;;;;;;0.43;0.43;;;20.00;99.90;;;;;;5005345;28;20203;-92
2021/08/02 09:21:23;;;;;;;1.33;0.70;;;19.70;99.90;;;;;;5022201;28;20305;-89
2021/08/02 09:23:50;;;;;;;2.10;0.50;;;20.70;99.90;;;;;;4987279;28;20491;-92
2021/08/02 09:26:27;;;;;;;0.50;0.40;;;20.00;99.90;;;;;;5004261;28;20253;-91
2021/08/02 09:28:53;;;;;;;1.83;0.70;;;20.60;99.90;;;;;;5021208;28;20226;-92
2021/08/02 09:31:19;;;;;;;0.73;0.50;;;20.60;99.90;;;;;;4989249;28;20248;-94
2021/08/02 09:33:47;;;;;;;0.57;0.50;;;21.20;99.90;;;;;;4988292;28;20309;-90
2021/08/02 09:36:17;;;;;;;0.43;0.43;;;21.80;99.90;;;;;;4988273;28;20690;-91
2021/08/02 09:38:43;;;;;;;2.63;0.50;;;20.80;99.90;;;;;;5004298;28;20214;-93
2021/08/02 09:41:19;;;;;;;0.83;0.83;;;20.80;99.90;;;;;;5020975;28;20305;-91
2021/08/02 09:43:52;;;;;;;2.50;0.60;;;20.80;99.90;;;;;;5001978;28;20276;-92
2021/08/02 09:46:18;;;;;;;0.33;0.33;;;20.50;99.90;;;;;;5020860;28;20244;-92
2021/08/02 09:48:46;;;;;;;0.50;0.30;;;19.60;99.90;;;;;;4986432;28;20415;-92
2021/08/02 09:51:20;;;;;;;2.63;0.60;;;19.40;99.90;;;;;;5020520;28;20253;-91
2021/08/02 09:53:51;;;;;;;3.77;0.80;;;19.00;99.90;;;;;;5002962;28;20317;-92
2021/08/02 09:56:19;;;;;;;0.93;0.73;;;18.70;99.90;;;;;;5004403;28;21294;-94
2021/08/02 09:58:46;;;;;;;0.50;0.47;;;19.00;99.90;;;;;;5003188;28;20769;-88
2021/08/02 10:01:18;;;;;;;0.40;0.40;;;19.30;99.90;;;;;;5003469;28;20190;-92
2021/08/02 10:03:44;;;;;;;1.03;0.40;;;19.40;99.90;;;;;;5003448;28;20688;-90
2021/08/02 10:06:12;;;;;;;2.27;0.50;;;19.00;99.90;;;;;;5003913;28;20222;-90
2021/08/02 10:08:39;;;;;;;0.30;0.30;;;19.00;99.90;;;;;;4986832;28;20218;-90
2021/08/02 10:11:05;;;;;;;0.50;0.50;;;19.30;99.90;;;;;;5001390;28;20490;-91
2021/08/02 10:13:37;;;;;;;0.60;0.40;;;19.10;99.90;;;;;;5001419;28;20756;-93
2021/08/02 10:16:07;;;;;;;0.70;0.70;;;19.10;99.90;;;;;;5004442;28;20198;-92
2021/08/02 10:18:33;;;;;;;0.30;0.30;;;18.90;99.90;;;;;;5021090;28;20215;-92
2021/08/02 10:21:17;;;;;;;1.67;0.50;;;18.90;99.90;;;;;;4987715;28;20218;-94
2021/08/02 10:23:43;;;;;;;0.30;0.30;;;19.30;99.90;;;;;;5003006;28;20226;-92
2021/08/02 10:26:29;;;;;;;0.73;0.40;;;19.60;99.90;;;;;;5003385;28;20230;-92
2021/08/02 10:28:57;;;;;;;1.03;0.50;;;19.90;99.90;;;;;;5001688;28;20222;-91
2021/08/02 10:31:26;;;;;;;0.60;0.60;;;19.60;99.90;;;;;;5001711;28;20274;-89
2021/08/02 10:33:53;;;;;;;0.30;0.30;;;19.80;99.90;;;;;;5001699;28;20533;-89
2021/08/02 10:36:21;;;;;;;1.07;0.60;;;19.30;99.90;;;;;;5002743;28;20249;-95
2021/08/02 10:38:52;;;;;;;1.50;0.40;;;19.60;99.90;;;;;;4997320;28;20214;-92
2021/08/02 10:41:30;;;;;;;0.50;0.50;;;19.30;99.90;;;;;;5018698;28;20305;-91
2021/08/02 10:43:57;;;;;;;2.27;0.57;;;19.30;99.90;;;;;;5000711;28;20798;-92
2021/08/02 10:46:25;;;;;;;2.00;0.43;;;19.70;99.90;;;;;;5016659;28;20660;-93
2021/08/02 10:49:06;;;;;;;0.43;0.43;;;19.30;99.90;;;;;;5002319;28;20194;-93
2021/08/02 10:51:43;;;;;;;4.80;0.77;;;19.50;99.90;;;;;;5018566;28;20225;-92
2021/08/02 10:54:09;;;;;;;1.00;0.83;;;19.60;99.90;;;;;;5017495;28;20246;-92
2021/08/02 10:56:35;;;;;;;0.63;0.63;;;19.70;99.90;;;;;;5017390;28;20246;-89
2021/08/02 10:59:01;;;;;;;0.87;0.40;;;19.70;99.90;;;;;;5016976;28;20225;-93
2021/08/02 11:01:28;;;;;;;0.30;0.30;;;18.90;99.90;;;;;;4983017;28;20222;-92
2021/08/02 11:03:55;;;;;;;0.30;0.30;;;18.60;99.90;;;;;;5000410;28;20256;-93
2021/08/02 11:06:21;;;;;;;0.20;0.20;;;18.70;99.90;;;;;;5001579;28;20229;-94
2021/08/02 11:08:49;;;;;;;1.83;1.00;;;18.30;99.90;;;;;;4986265;28;20214;-90
2021/08/02 11:11:29;;;;;;;1.60;1.03;;;18.50;99.90;;;;;;5020228;28;20219;-92
2021/08/02 11:14:12;;;;;;;3.10;0.50;;;18.70;99.90;;;;;;5019259;28;20312;-91
2021/08/02 11:16:48;;;;;;;0.53;0.53;;;18.50;99.90;;;;;;5020116;28;20253;-91
2021/08/02 11:19:15;;;;;;;1.90;0.40;;;18.60;99.90;;;;;;5002512;28;20198;-92
2021/08/02 11:21:41;;;;;;;0.53;0.40;;;18.20;99.90;;;;;;5020839;28;20681;-92
2021/08/02 11:24:11;;;;;;;0.57;0.57;;;18.20;99.90;;;;;;5002601;28;20226;-89
2021/08/02 11:26:51;;;;;;;4.30;0.63;;;18.60;99.90;;;;;;5018750;28;20329;-90
2021/08/02 11:29:19;;;;;;;0.27;0.27;;;18.40;99.90;;;;;;5020634;28;20230;-92
2021/08/02 11:31:55;;;;;;;0.50;0.50;;;18.70;99.90;;;;;;5020112;28;20309;-91
2021/08/02 11:34:22;;;;;;;0.47;0.33;;;19.60;99.90;;;;;;5018611;28;20226;-89
2021/08/02 11:37:08;;;;;;;0.30;0.30;;;19.40;99.90;;;;;;5003478;28;20190;-92
2021/08/02 11:39:36;;;;;;;0.80;0.70;;;19.90;99.90;;;;;;5002173;28;20222;-92
2021/08/02 11:42:16;;;;;;;0.50;0.50;;;20.40;99.90;;;;;;5020911;28;20300;-90
2021/08/02 11:44:49;;;;;;;1.23;0.43;;;21.00;99.90;;;;;;5018591;28;20226;-88
2021/08/02 11:47:24;;;;;;;0.40;0.40;;;20.90;99.90;;;;;;5001414;28;20312;-92
2021/08/02 11:49:55;;;;;;;2.10;0.47;;;19.90;99.90;;;;;;4999509;28;20256;-87
2021/08/02 11:52:24;;;;;;;0.50;0.50;;;20.20;99.90;;;;;;5000031;28;20194;-91
2021/08/02 11:55:10;;;;;;;0.70;0.70;;;20.10;99.90;;;;;;4998645;28;20203;-91
2021/08/02 11:57:36;;;;;;;0.80;0.80;;;20.20;99.90;;;;;;4999006;28;20272;-89
2021/08/02 12:00:17;;;;;;;0.40;0.40;;;20.40;99.90;;;;;;5017886;28;20225;-92
2021/08/02 12:02:45;;;;;;;0.63;0.40;;;20.10;99.90;;;;;;5019202;28;20215;-89
2021/08/02 12:05:23;;;;;;;0.60;0.40;;;20.20;99.90;;;;;;5001464;28;20226;-90
2021/08/02 12:07:49;;;;;;;0.93;0.60;;;20.40;99.90;;;;;;5001912;28;20222;-89
2021/08/02 12:10:18;;;;;;;0.53;0.33;;;19.80;99.90;;;;;;5001975;28;20297;-91
2021/08/02 12:13:08;;;;;;;1.53;0.40;;;20.20;99.90;;;;;;5019710;28;20233;-88
2021/08/02 12:15:35;;;;;;;6.10;0.57;;;20.00;99.90;;;;;;5017845;28;20207;-88
2021/08/02 12:18:01;;;;;;;0.40;0.40;;;19.80;99.90;;;;;;5001814;28;20211;-89
2021/08/02 12:20:34;;;;;;;0.30;0.30;;;19.80;99.90;;;;;;5001462;28;20222;-88
2021/08/02 12:23:00;;;;;;;0.40;0.40;;;19.80;99.90;;;;;;5001558;28;20246;-89
2021/08/02 12:25:46;;;;;;;1.67;0.40;;;20.20;99.90;;;;;;5001063;28;20186;-89
2021/08/02 12:28:12;;;;;;;1.10;0.43;;;19.90;99.90;;;;;;5002359;28;20203;-91
2021/08/02 12:30:38;;;;;;;0.60;0.60;;;19.50;99.90;;;;;;5000787;28;20222;-90
2021/08/02 12:33:05;;;;;;;2.40;0.70;;;19.60;99.90;;;;;;4999676;28;20242;-90
2021/08/02 12:35:31;;;;;;;0.40;0.40;;;19.30;99.90;;;;;;4985087;28;20215;-90
2021/08/02 12:38:02;;;;;;;1.07;0.97;;;19.20;99.90;;;;;;4984890;28;20256;-90
2021/08/02 12:40:29;;;;;;;0.47;0.47;;;19.20;99.90;;;;;;5001748;28;20197;-90
2021/08/02 12:42:55;;;;;;;0.77;0.40;;;19.40;99.90;;;;;;5002323;28;20241;-92
2021/08/02 12:45:21;;;;;;;0.30;0.30;;;19.10;99.90;;;;;;5001462;28;20211;-93
2021/08/02 12:47:48;;;;;;;0.37;0.30;;;19.00;99.90;;;;;;5002190;28;20210;-91
2021/08/02 12:50:16;;;;;;;1.27;0.70;;;19.40;99.90;;;;;;5001053;28;20226;-92
2021/08/02 12:52:42;;;;;;;1.40;0.50;;;19.80;99.90;;;;;;5001446;28;20249;-89
2021/08/02 12:55:10;;;;;;;1.70;0.63;;;20.00;99.90;;;;;;5002610;28;20186;-91